F/V Harvestor — WDC8229 — position and weather

sailwx.info

Track history (hours):
 
Tides and Currents Weather Stations Pressure Air Temp Water Temp Dewpoint Dewpoint Depression Visibility Wind Speed Wind Dir Waves Ship Positions

F/V Harvestor

Owner: F/V HARVESTOR INC., EDMONDS, WA. More information available from US FCC via Universal Licensing System and Coast Guard Vessel Documentation Center.

Last reported at 2016-Jul-02 04:33 UTC. Time now 2016-Jul-02 05:47 UTC.
Position N 47°38' W 122°23'.

Length 40 m.

Type: Fishing. MMSI: 367083650.

Date/timePositionNaut miles runAvg speedWind from/ knotsBaromVisibWave heightAir tempDewpointWater temp
2016-Jul-02 04:33N 47°38' W 122°23'0 0.0
2016-Jul-02 03:33N 47°38' W 122°23'0 0.0
2016-Jul-02 02:33N 47°38' W 122°23'0 0.0
2016-Jul-02 01:33N 47°38' W 122°23'0 0.0
2016-Jul-02 00:33N 47°38' W 122°23'0 0.0
2016-Jul-01 23:33N 47°38' W 122°23'0 0.0
2016-Jul-01 22:33N 47°38' W 122°23'0 0.0
2016-Jul-01 21:33N 47°38' W 122°23'0 0.0
2016-Jul-01 20:33N 47°38' W 122°23'0 0.0
2016-Jul-01 19:33N 47°38' W 122°23'0 0.0
2016-Jul-01 18:33N 47°38' W 122°23'0 0.0
2016-Jul-01 17:33N 47°38' W 122°23'0 0.0
2016-Jul-01 16:33N 47°38' W 122°23'0 0.0
2016-Jul-01 15:33N 47°38' W 122°23'0 0.0
2016-Jul-01 14:33N 47°38' W 122°23'0 0.0
2016-Jul-01 13:33N 47°38' W 122°23'0 0.0
2016-Jul-01 12:33N 47°38' W 122°23'0 0.0
2016-Jul-01 11:33N 47°38' W 122°23'0 0.0
2016-Jul-01 10:33N 47°38' W 122°23'0 0.0
2016-Jul-01 09:33N 47°38' W 122°23'0 0.0
2016-Jul-01 08:33N 47°38' W 122°23'0 0.0
2016-Jul-01 07:33N 47°38' W 122°23'0 0.0
2016-Jul-01 06:33N 47°38' W 122°23'0 0.0
2016-Jul-01 05:33N 47°38' W 122°23'0 0.0
2016-Jul-01 04:33N 47°38' W 122°23'0 0.0
2016-Jul-01 03:33N 47°38' W 122°23'0 0.0
2016-Jul-01 02:33N 47°38' W 122°23'2 2.4
2016-Jul-01 01:33N 47°39' W 122°26'8 7.8
2016-Jul-01 00:33N 47°47' W 122°25'9 8.6
2016-Jun-30 23:33N 47°55' W 122°21'8 8.1
2016-Jun-30 22:32N 48°03' W 122°24'9 8.3
2016-Jun-30 21:25N 48°10' W 122°33'7 7.9
2016-Jun-30 20:32N 48°17' W 122°31'7 6.6
2016-Jun-30 19:24N 48°24' W 122°34'0 0.3
2016-Jun-30 18:33N 48°24' W 122°34'0 0.0
2016-Jun-30 16:30N 48°24' W 122°34'0 0.0
2016-Jun-30 11:08N 48°24' W 122°34'0 0.0
2016-Jun-30 10:27N 48°24' W 122°34'0 0.0
2016-Jun-30 09:29N 48°24' W 122°34'0 0.0
2016-Jun-30 08:30N 48°24' W 122°34'0 0.0
2016-Jun-30 07:32N 48°24' W 122°34'5 0.6
2016-Jun-29 23:33N 48°20' W 122°32'8 7.8
2016-Jun-29 22:30N 48°12' W 122°33'8 7.9
2016-Jun-29 21:33N 48°05' W 122°27'8 8.4
2016-Jun-29 20:33N 47°58' W 122°20'8 8.5
2016-Jun-29 19:33N 47°50' W 122°24'9 8.6
2016-Jun-29 18:33N 47°42' W 122°27'4 4.4
2016-Jun-29 17:33N 47°38' W 122°23'0 0.0
2016-Jun-29 16:33N 47°38' W 122°23'0 0.0
2016-Jun-29 15:33N 47°38' W 122°23'0 0.0
2016-Jun-29 14:33N 47°38' W 122°23'0 0.0
2016-Jun-29 13:33N 47°38' W 122°23'0 0.0
2016-Jun-29 12:33N 47°38' W 122°23'0 0.0
2016-Jun-29 11:33N 47°38' W 122°23'0 0.0
2016-Jun-29 10:33N 47°38' W 122°23'0 0.0
2016-Jun-29 09:33N 47°38' W 122°23'0 0.0
2016-Jun-29 08:34N 47°38' W 122°23'0 0.0
2016-Jun-29 07:33N 47°38' W 122°23'0 0.0
2016-Jun-29 06:33N 47°38' W 122°23'0 0.0
2016-Jun-29 05:33N 47°38' W 122°23'0 0.0
2016-Jun-29 04:33N 47°38' W 122°23'4 3.8
2016-Jun-29 03:33N 47°41' W 122°26'9 8.7
2016-Jun-29 02:33N 47°50' W 122°24'9 8.6
2016-Jun-29 01:33N 47°58' W 122°21'8 8.4
2016-Jun-29 00:33N 48°05' W 122°27'8 8.4
2016-Jun-28 23:33N 48°13' W 122°33'7 7.4
2016-Jun-28 22:33N 48°20' W 122°31'5 2.3
2016-Jun-28 20:27N 48°24' W 122°34'0 0.0
2016-Jun-28 19:33N 48°24' W 122°34'0 0.0
2016-Jun-28 11:31N 48°24' W 122°34'0 0.0
2016-Jun-28 07:32N 48°24' W 122°34'0 0.0
2016-Jun-28 06:33N 48°24' W 122°34'0 0.0
2016-Jun-28 04:31N 48°24' W 122°34'1 0.2
2016-Jun-27 22:27N 48°23' W 122°35'7 7.5
2016-Jun-27 21:33N 48°17' W 122°31'10 7.5
2016-Jun-27 20:17N 48°07' W 122°31'5 7.5
2016-Jun-27 19:33N 48°04' W 122°25'8 7.6
2016-Jun-27 18:33N 47°57' W 122°21'8 8.0
2016-Jun-27 17:33N 47°49' W 122°25'8 8.2
2016-Jun-27 16:33N 47°41' W 122°27'4 3.9
2016-Jun-27 15:33N 47°38' W 122°23'0 0.0
2016-Jun-27 14:33N 47°38' W 122°23'0 0.0
2016-Jun-27 13:33N 47°38' W 122°23'0 0.0
2016-Jun-27 12:33N 47°38' W 122°23'0 0.0
2016-Jun-27 11:33N 47°38' W 122°23'0 0.0
2016-Jun-27 10:33N 47°38' W 122°23'0 0.0
2016-Jun-27 09:33N 47°38' W 122°23'0 0.0
2016-Jun-27 08:33N 47°38' W 122°23'0 0.0
2016-Jun-27 07:34N 47°38' W 122°23'0 0.0
2016-Jun-27 06:33N 47°38' W 122°23'0 0.0
2016-Jun-27 05:33N 47°38' W 122°23'0 0.0
2016-Jun-27 04:33N 47°38' W 122°23'0 0.0
2016-Jun-27 03:33N 47°38' W 122°23'0 0.0
2016-Jun-27 02:33N 47°38' W 122°23'1 1.5
2016-Jun-27 01:33N 47°38' W 122°25'8 8.3
2016-Jun-27 00:33N 47°46' W 122°25'9 9.1
2016-Jun-26 23:33N 47°55' W 122°21'8 8.3
2016-Jun-26 22:32N 48°03' W 122°24'9 8.9
2016-Jun-26 21:33N 48°10' W 122°32'9 8.6
2016-Jun-26 20:33N 48°19' W 122°30'6 0.6
2016-Jun-26 09:14N 48°24' W 122°34'0 0.0
2016-Jun-26 08:33N 48°24' W 122°34'0 0.0
2016-Jun-26 07:32N 48°24' W 122°34'0 0.0
2016-Jun-26 01:20N 48°25' W 122°34'6 7.0
2016-Jun-26 00:31N 48°19' W 122°31'9 7.8
2016-Jun-25 23:25N 48°11' W 122°33'7 7.9
2016-Jun-25 22:33N 48°05' W 122°27'8 7.7
2016-Jun-25 21:33N 47°59' W 122°21'8 7.6
2016-Jun-25 20:34N 47°51' W 122°23'9 8.6
2016-Jun-25 19:33N 47°43' W 122°26'5 5.5
2016-Jun-25 18:33N 47°38' W 122°23'0 0.0
2016-Jun-25 17:33N 47°38' W 122°23'0 0.0
2016-Jun-25 16:33N 47°38' W 122°23'0 0.0
2016-Jun-25 15:33N 47°38' W 122°23'0 0.0
2016-Jun-25 14:33N 47°38' W 122°23'0 0.0
2016-Jun-25 13:33N 47°38' W 122°23'0 0.0
2016-Jun-25 12:33N 47°38' W 122°23'0 0.0
2016-Jun-25 11:33N 47°38' W 122°23'0 0.0
2016-Jun-25 10:33N 47°38' W 122°23'0 0.0
2016-Jun-25 09:33N 47°38' W 122°23'0 0.0
2016-Jun-25 08:33N 47°38' W 122°23'0 0.0
2016-Jun-25 07:33N 47°38' W 122°23'0 0.0
2016-Jun-25 06:33N 47°38' W 122°23'0 0.0
2016-Jun-25 05:34N 47°38' W 122°23'0 0.0
2016-Jun-25 04:33N 47°38' W 122°23'0 0.0
2016-Jun-25 03:33N 47°38' W 122°23'0 0.0
2016-Jun-25 02:33N 47°38' W 122°23'0 0.0
2016-Jun-25 01:33N 47°38' W 122°23'0 0.0
2016-Jun-25 00:33N 47°38' W 122°23'0 0.0
2016-Jun-24 23:33N 47°38' W 122°23'0 0.0
2016-Jun-24 22:33N 47°38' W 122°23'0 0.0
2016-Jun-24 21:33N 47°38' W 122°23'0 0.0
2016-Jun-24 20:33N 47°38' W 122°23'0 0.0
2016-Jun-24 19:33N 47°38' W 122°23'0 0.0
2016-Jun-24 18:33N 47°38' W 122°23'0 0.0
2016-Jun-24 17:33N 47°38' W 122°23'0 0.0
2016-Jun-24 16:33N 47°38' W 122°23'0 0.0
2016-Jun-24 15:33N 47°38' W 122°23'0 0.0
2016-Jun-24 14:33N 47°38' W 122°23'0 0.0
2016-Jun-24 13:33N 47°38' W 122°23'0 0.0
2016-Jun-24 12:33N 47°38' W 122°23'0 0.0
2016-Jun-24 11:33N 47°38' W 122°23'0 0.0
2016-Jun-24 10:33N 47°38' W 122°23'0 0.0
2016-Jun-24 09:33N 47°38' W 122°23'0 0.0
2016-Jun-24 08:33N 47°38' W 122°23'0 0.0
2016-Jun-24 07:33N 47°38' W 122°23'6 5.8
2016-Jun-24 06:33N 47°43' W 122°28'15 7.5
2016-Jun-24 04:33N 47°57' W 122°34'8 7.6
2016-Jun-24 03:31N 48°04' W 122°40'10 8.3
2016-Jun-24 02:21N 48°10' W 122°51'8 8.7
2016-Jun-24 01:28N 48°12' W 123°02'1010.4
2016-Jun-24 00:32N 48°09' W 123°16'6 6.1
2016-Jun-23 23:33N 48°08' W 123°25'0 0.0
2016-Jun-23 22:33N 48°08' W 123°25'0 0.0
2016-Jun-23 21:33N 48°08' W 123°25'0 0.0
2016-Jun-23 20:33N 48°08' W 123°25'0 0.0
2016-Jun-23 19:33N 48°08' W 123°25'0 0.0
2016-Jun-23 18:33N 48°08' W 123°25'0 0.0
2016-Jun-23 17:33N 48°08' W 123°25'0 0.0
2016-Jun-23 16:33N 48°08' W 123°25'0 0.0
2016-Jun-23 15:33N 48°08' W 123°25'0 0.0
2016-Jun-23 14:33N 48°08' W 123°25'0 0.0
2016-Jun-23 13:33N 48°08' W 123°25'0 0.0
2016-Jun-23 12:33N 48°08' W 123°25'0 0.0
2016-Jun-23 11:33N 48°08' W 123°25'0 0.0
2016-Jun-23 10:33N 48°08' W 123°25'0 0.0
2016-Jun-23 09:33N 48°08' W 123°25'0 0.0
2016-Jun-23 08:33N 48°08' W 123°25'0 0.0
2016-Jun-23 07:32N 48°08' W 123°25'0 0.0
2016-Jun-23 05:33N 48°08' W 123°25'5 4.6
2016-Jun-23 04:33N 48°10' W 123°19'8 7.8
2016-Jun-23 03:33N 48°13' W 123°08'8 7.5
2016-Jun-23 02:33N 48°12' W 122°56'7 7.1
2016-Jun-23 01:32N 48°11' W 122°46'7 3.6
2016-Jun-22 23:33N 48°05' W 122°38'6 5.7
2016-Jun-22 22:33N 48°00' W 122°36'6 6.4
2016-Jun-22 21:33N 47°56' W 122°29'8 8.2
2016-Jun-22 20:33N 47°48' W 122°26'8 8.5
2016-Jun-22 19:33N 47°39' W 122°26'2 2.4
2016-Jun-22 18:33N 47°38' W 122°23'0 0.0
2016-Jun-22 17:33N 47°38' W 122°23'0 0.0
2016-Jun-22 16:33N 47°38' W 122°23'0 0.0
2016-Jun-22 15:33N 47°38' W 122°23'0 0.0
2016-Jun-22 14:33N 47°38' W 122°23'0 0.0
2016-Jun-22 13:33N 47°38' W 122°23'0 0.0
2016-Jun-22 12:33N 47°38' W 122°23'0 0.0
2016-Jun-22 11:33N 47°38' W 122°23'3 2.9
2016-Jun-22 10:33N 47°39' W 122°27'8 8.0
2016-Jun-22 09:33N 47°47' W 122°27'8 8.1
2016-Jun-22 08:33N 47°54' W 122°30'7 7.0
2016-Jun-22 07:33N 47°60' W 122°37'8 6.7
2016-Jun-22 06:25N 48°07' W 122°41'  
Track history (hours):
 
Tides and Currents Weather Stations Pressure Air Temp Water Temp Dewpoint Dewpoint Depression Visibility Wind Speed Wind Dir Waves Ship Positions

F/V Harvestor

Owner: F/V HARVESTOR INC., EDMONDS, WA. More information available from US FCC via Universal Licensing System and Coast Guard Vessel Documentation Center.

Last reported at 2016-Jul-02 04:33 UTC. Time now 2016-Jul-02 05:47 UTC.
Position N 47°38' W 122°23'.

Length 40 m.

Type: Fishing. MMSI: 367083650.

Date/timePositionNaut miles runAvg speedWind from/ knotsBaromVisibWave heightAir tempDewpointWater temp
2016-Jul-02 04:33N 47°38' W 122°23'0 0.0
2016-Jul-02 03:33N 47°38' W 122°23'0 0.0
2016-Jul-02 02:33N 47°38' W 122°23'0 0.0
2016-Jul-02 01:33N 47°38' W 122°23'0 0.0
2016-Jul-02 00:33N 47°38' W 122°23'0 0.0
2016-Jul-01 23:33N 47°38' W 122°23'0 0.0
2016-Jul-01 22:33N 47°38' W 122°23'0 0.0
2016-Jul-01 21:33N 47°38' W 122°23'0 0.0
2016-Jul-01 20:33N 47°38' W 122°23'0 0.0
2016-Jul-01 19:33N 47°38' W 122°23'0 0.0
2016-Jul-01 18:33N 47°38' W 122°23'0 0.0
2016-Jul-01 17:33N 47°38' W 122°23'0 0.0
2016-Jul-01 16:33N 47°38' W 122°23'0 0.0
2016-Jul-01 15:33N 47°38' W 122°23'0 0.0
2016-Jul-01 14:33N 47°38' W 122°23'0 0.0
2016-Jul-01 13:33N 47°38' W 122°23'0 0.0
2016-Jul-01 12:33N 47°38' W 122°23'0 0.0
2016-Jul-01 11:33N 47°38' W 122°23'0 0.0
2016-Jul-01 10:33N 47°38' W 122°23'0 0.0
2016-Jul-01 09:33N 47°38' W 122°23'0 0.0
2016-Jul-01 08:33N 47°38' W 122°23'0 0.0
2016-Jul-01 07:33N 47°38' W 122°23'0 0.0
2016-Jul-01 06:33N 47°38' W 122°23'0 0.0
2016-Jul-01 05:33N 47°38' W 122°23'0 0.0
2016-Jul-01 04:33N 47°38' W 122°23'0 0.0
2016-Jul-01 03:33N 47°38' W 122°23'0 0.0
2016-Jul-01 02:33N 47°38' W 122°23'2 2.4
2016-Jul-01 01:33N 47°39' W 122°26'8 7.8
2016-Jul-01 00:33N 47°47' W 122°25'9 8.6
2016-Jun-30 23:33N 47°55' W 122°21'8 8.1
2016-Jun-30 22:32N 48°03' W 122°24'9 8.3
2016-Jun-30 21:25N 48°10' W 122°33'7 7.9
2016-Jun-30 20:32N 48°17' W 122°31'7 6.6
2016-Jun-30 19:24N 48°24' W 122°34'0 0.3
2016-Jun-30 18:33N 48°24' W 122°34'0 0.0
2016-Jun-30 16:30N 48°24' W 122°34'0 0.0
2016-Jun-30 11:08N 48°24' W 122°34'0 0.0
2016-Jun-30 10:27N 48°24' W 122°34'0 0.0
2016-Jun-30 09:29N 48°24' W 122°34'0 0.0
2016-Jun-30 08:30N 48°24' W 122°34'0 0.0
2016-Jun-30 07:32N 48°24' W 122°34'5 0.6
2016-Jun-29 23:33N 48°20' W 122°32'8 7.8
2016-Jun-29 22:30N 48°12' W 122°33'8 7.9
2016-Jun-29 21:33N 48°05' W 122°27'8 8.4
2016-Jun-29 20:33N 47°58' W 122°20'8 8.5
2016-Jun-29 19:33N 47°50' W 122°24'9 8.6
2016-Jun-29 18:33N 47°42' W 122°27'4 4.4
2016-Jun-29 17:33N 47°38' W 122°23'0 0.0
2016-Jun-29 16:33N 47°38' W 122°23'0 0.0
2016-Jun-29 15:33N 47°38' W 122°23'0 0.0
2016-Jun-29 14:33N 47°38' W 122°23'0 0.0
2016-Jun-29 13:33N 47°38' W 122°23'0 0.0
2016-Jun-29 12:33N 47°38' W 122°23'0 0.0
2016-Jun-29 11:33N 47°38' W 122°23'0 0.0
2016-Jun-29 10:33N 47°38' W 122°23'0 0.0
2016-Jun-29 09:33N 47°38' W 122°23'0 0.0
2016-Jun-29 08:34N 47°38' W 122°23'0 0.0
2016-Jun-29 07:33N 47°38' W 122°23'0 0.0
2016-Jun-29 06:33N 47°38' W 122°23'0 0.0
2016-Jun-29 05:33N 47°38' W 122°23'0 0.0
2016-Jun-29 04:33N 47°38' W 122°23'4 3.8
2016-Jun-29 03:33N 47°41' W 122°26'9 8.7
2016-Jun-29 02:33N 47°50' W 122°24'9 8.6
2016-Jun-29 01:33N 47°58' W 122°21'8 8.4
2016-Jun-29 00:33N 48°05' W 122°27'8 8.4
2016-Jun-28 23:33N 48°13' W 122°33'7 7.4
2016-Jun-28 22:33N 48°20' W 122°31'5 2.3
2016-Jun-28 20:27N 48°24' W 122°34'0 0.0
2016-Jun-28 19:33N 48°24' W 122°34'0 0.0
2016-Jun-28 11:31N 48°24' W 122°34'0 0.0
2016-Jun-28 07:32N 48°24' W 122°34'0 0.0
2016-Jun-28 06:33N 48°24' W 122°34'0 0.0
2016-Jun-28 04:31N 48°24' W 122°34'1 0.2
2016-Jun-27 22:27N 48°23' W 122°35'7 7.5
2016-Jun-27 21:33N 48°17' W 122°31'10 7.5
2016-Jun-27 20:17N 48°07' W 122°31'5 7.5
2016-Jun-27 19:33N 48°04' W 122°25'8 7.6
2016-Jun-27 18:33N 47°57' W 122°21'8 8.0
2016-Jun-27 17:33N 47°49' W 122°25'8 8.2
2016-Jun-27 16:33N 47°41' W 122°27'4 3.9
2016-Jun-27 15:33N 47°38' W 122°23'0 0.0
2016-Jun-27 14:33N 47°38' W 122°23'0 0.0
2016-Jun-27 13:33N 47°38' W 122°23'0 0.0
2016-Jun-27 12:33N 47°38' W 122°23'0 0.0
2016-Jun-27 11:33N 47°38' W 122°23'0 0.0
2016-Jun-27 10:33N 47°38' W 122°23'0 0.0
2016-Jun-27 09:33N 47°38' W 122°23'0 0.0
2016-Jun-27 08:33N 47°38' W 122°23'0 0.0
2016-Jun-27 07:34N 47°38' W 122°23'0 0.0
2016-Jun-27 06:33N 47°38' W 122°23'0 0.0
2016-Jun-27 05:33N 47°38' W 122°23'0 0.0
2016-Jun-27 04:33N 47°38' W 122°23'0 0.0
2016-Jun-27 03:33N 47°38' W 122°23'0 0.0
2016-Jun-27 02:33N 47°38' W 122°23'1 1.5
2016-Jun-27 01:33N 47°38' W 122°25'8 8.3
2016-Jun-27 00:33N 47°46' W 122°25'9 9.1
2016-Jun-26 23:33N 47°55' W 122°21'8 8.3
2016-Jun-26 22:32N 48°03' W 122°24'9 8.9
2016-Jun-26 21:33N 48°10' W 122°32'9 8.6
2016-Jun-26 20:33N 48°19' W 122°30'6 0.6
2016-Jun-26 09:14N 48°24' W 122°34'0 0.0
2016-Jun-26 08:33N 48°24' W 122°34'0 0.0
2016-Jun-26 07:32N 48°24' W 122°34'0 0.0
2016-Jun-26 01:20N 48°25' W 122°34'6 7.0
2016-Jun-26 00:31N 48°19' W 122°31'9 7.8
2016-Jun-25 23:25N 48°11' W 122°33'7 7.9
2016-Jun-25 22:33N 48°05' W 122°27'8 7.7
2016-Jun-25 21:33N 47°59' W 122°21'8 7.6
2016-Jun-25 20:34N 47°51' W 122°23'9 8.6
2016-Jun-25 19:33N 47°43' W 122°26'5 5.5
2016-Jun-25 18:33N 47°38' W 122°23'0 0.0
2016-Jun-25 17:33N 47°38' W 122°23'0 0.0
2016-Jun-25 16:33N 47°38' W 122°23'0 0.0
2016-Jun-25 15:33N 47°38' W 122°23'0 0.0
2016-Jun-25 14:33N 47°38' W 122°23'0 0.0
2016-Jun-25 13:33N 47°38' W 122°23'0 0.0
2016-Jun-25 12:33N 47°38' W 122°23'0 0.0
2016-Jun-25 11:33N 47°38' W 122°23'0 0.0
2016-Jun-25 10:33N 47°38' W 122°23'0 0.0
2016-Jun-25 09:33N 47°38' W 122°23'0 0.0
2016-Jun-25 08:33N 47°38' W 122°23'0 0.0
2016-Jun-25 07:33N 47°38' W 122°23'0 0.0
2016-Jun-25 06:33N 47°38' W 122°23'0 0.0
2016-Jun-25 05:34N 47°38' W 122°23'0 0.0
2016-Jun-25 04:33N 47°38' W 122°23'0 0.0
2016-Jun-25 03:33N 47°38' W 122°23'0 0.0
2016-Jun-25 02:33N 47°38' W 122°23'0 0.0
2016-Jun-25 01:33N 47°38' W 122°23'0 0.0
2016-Jun-25 00:33N 47°38' W 122°23'0 0.0
2016-Jun-24 23:33N 47°38' W 122°23'0 0.0
2016-Jun-24 22:33N 47°38' W 122°23'0 0.0
2016-Jun-24 21:33N 47°38' W 122°23'0 0.0
2016-Jun-24 20:33N 47°38' W 122°23'0 0.0
2016-Jun-24 19:33N 47°38' W 122°23'0 0.0
2016-Jun-24 18:33N 47°38' W 122°23'0 0.0
2016-Jun-24 17:33N 47°38' W 122°23'0 0.0
2016-Jun-24 16:33N 47°38' W 122°23'0 0.0
2016-Jun-24 15:33N 47°38' W 122°23'0 0.0
2016-Jun-24 14:33N 47°38' W 122°23'0 0.0
2016-Jun-24 13:33N 47°38' W 122°23'0 0.0
2016-Jun-24 12:33N 47°38' W 122°23'0 0.0
2016-Jun-24 11:33N 47°38' W 122°23'0 0.0
2016-Jun-24 10:33N 47°38' W 122°23'0 0.0
2016-Jun-24 09:33N 47°38' W 122°23'0 0.0
2016-Jun-24 08:33N 47°38' W 122°23'0 0.0
2016-Jun-24 07:33N 47°38' W 122°23'6 5.8
2016-Jun-24 06:33N 47°43' W 122°28'15 7.5
2016-Jun-24 04:33N 47°57' W 122°34'8 7.6
2016-Jun-24 03:31N 48°04' W 122°40'10 8.3
2016-Jun-24 02:21N 48°10' W 122°51'8 8.7
2016-Jun-24 01:28N 48°12' W 123°02'1010.4
2016-Jun-24 00:32N 48°09' W 123°16'6 6.1
2016-Jun-23 23:33N 48°08' W 123°25'0 0.0
2016-Jun-23 22:33N 48°08' W 123°25'0 0.0
2016-Jun-23 21:33N 48°08' W 123°25'0 0.0
2016-Jun-23 20:33N 48°08' W 123°25'0 0.0
2016-Jun-23 19:33N 48°08' W 123°25'0 0.0
2016-Jun-23 18:33N 48°08' W 123°25'0 0.0
2016-Jun-23 17:33N 48°08' W 123°25'0 0.0
2016-Jun-23 16:33N 48°08' W 123°25'0 0.0
2016-Jun-23 15:33N 48°08' W 123°25'0 0.0
2016-Jun-23 14:33N 48°08' W 123°25'0 0.0
2016-Jun-23 13:33N 48°08' W 123°25'0 0.0
2016-Jun-23 12:33N 48°08' W 123°25'0 0.0
2016-Jun-23 11:33N 48°08' W 123°25'0 0.0
2016-Jun-23 10:33N 48°08' W 123°25'0 0.0
2016-Jun-23 09:33N 48°08' W 123°25'0 0.0
2016-Jun-23 08:33N 48°08' W 123°25'0 0.0
2016-Jun-23 07:32N 48°08' W 123°25'0 0.0
2016-Jun-23 05:33N 48°08' W 123°25'5 4.6
2016-Jun-23 04:33N 48°10' W 123°19'8 7.8
2016-Jun-23 03:33N 48°13' W 123°08'8 7.5
2016-Jun-23 02:33N 48°12' W 122°56'7 7.1
2016-Jun-23 01:32N 48°11' W 122°46'7 3.6
2016-Jun-22 23:33N 48°05' W 122°38'6 5.7
2016-Jun-22 22:33N 48°00' W 122°36'6 6.4
2016-Jun-22 21:33N 47°56' W 122°29'8 8.2
2016-Jun-22 20:33N 47°48' W 122°26'8 8.5
2016-Jun-22 19:33N 47°39' W 122°26'2 2.4
2016-Jun-22 18:33N 47°38' W 122°23'0 0.0
2016-Jun-22 17:33N 47°38' W 122°23'0 0.0
2016-Jun-22 16:33N 47°38' W 122°23'0 0.0
2016-Jun-22 15:33N 47°38' W 122°23'0 0.0
2016-Jun-22 14:33N 47°38' W 122°23'0 0.0
2016-Jun-22 13:33N 47°38' W 122°23'0 0.0
2016-Jun-22 12:33N 47°38' W 122°23'0 0.0
2016-Jun-22 11:33N 47°38' W 122°23'3 2.9
2016-Jun-22 10:33N 47°39' W 122°27'8 8.0
2016-Jun-22 09:33N 47°47' W 122°27'8 8.1
2016-Jun-22 08:33N 47°54' W 122°30'7 7.0
2016-Jun-22 07:33N 47°60' W 122°37'8 6.7
2016-Jun-22 06:25N 48°07' W 122°41'  

Dump ship's entire track history